EZY64UT LCPH-EGGW
Flight info
| Callsign | EZY64UT |
|---|---|
| Flight time | 4h 5m |
| Altitude | 34000 |
| Route | GENOS DCT PEDER DCT EVENO DCT BENEM UN127 RIKSO DCT FSK/N0447F360 DCT DISOR DCT LONTA UL608 DOLEV DCT AGLIB DCT BEDOX DCT SIMBA DCT MAMOR DCT INBED DCT BOMBI DCT KOZUF DCT IMPOH DCT SASKI L608 SUMUM Y6 TOSVA |
| Aircraft | A320/M-SDE2E3FGHIJ1RWXYZ/LB1 |
Departure
| Time | 2026-05-05 20:26 |
|---|---|
| Airport | Paphos International Airport (LCPH) |
Arrival
| Time | 2026-05-06 00:31 |
|---|---|
| Airport | London Luton Airport (EGGW) |
| Time | Latitude | Longitude | Altitude | Speed | Heading |
|---|---|---|---|---|---|
| 2026-05-05 20:00 | 34.71348 | 32.48700 | 36 ft | 0 kts | 154° |
| 2026-05-05 20:04 | 34.71349 | 32.48700 | 36 ft | 0 kts | 154° |
| 2026-05-05 20:18 | 34.71348 | 32.48700 | 36 ft | 1 kts | 154° |
| 2026-05-05 20:18 | 34.71348 | 32.48715 | 36 ft | 3 kts | 69° |
| 2026-05-05 20:18 | 34.71379 | 32.48717 | 36 ft | 5 kts | 1° |
| 2026-05-05 20:18 | 34.71410 | 32.48722 | 34 ft | 5 kts | 8° |
| 2026-05-05 20:19 | 34.71439 | 32.48759 | 36 ft | 8 kts | 64° |
| 2026-05-05 20:19 | 34.71469 | 32.48838 | 35 ft | 12 kts | 66° |
| 2026-05-05 20:19 | 34.71511 | 32.48946 | 35 ft | 16 kts | 60° |
| 2026-05-05 20:19 | 34.71613 | 32.49012 | 37 ft | 17 kts | 33° |
| 2026-05-05 20:20 | 34.71610 | 32.49150 | 36 ft | 20 kts | 110° |
| 2026-05-05 20:20 | 34.71556 | 32.49326 | 31 ft | 25 kts | 110° |
| 2026-05-05 20:20 | 34.71492 | 32.49536 | 32 ft | 28 kts | 110° |
| 2026-05-05 20:20 | 34.71418 | 32.49754 | 31 ft | 22 kts | 136° |
| 2026-05-05 20:21 | 34.71379 | 32.49771 | 30 ft | 0 kts | 162° |
| 2026-05-05 20:21 | 34.71376 | 32.49776 | 31 ft | 2 kts | 136° |
| 2026-05-05 20:21 | 34.71362 | 32.49797 | 31 ft | 4 kts | 120° |
| 2026-05-05 20:21 | 34.71374 | 32.49844 | 31 ft | 8 kts | 46° |
| 2026-05-05 20:22 | 34.71410 | 32.49810 | 31 ft | 10 kts | 282° |
| 2026-05-05 20:22 | 34.71415 | 32.49793 | 31 ft | 0 kts | 295° |
| 2026-05-05 20:23 | 34.71417 | 32.49786 | 31 ft | 0 kts | 291° |
| 2026-05-05 20:25 | 34.71421 | 32.49774 | 31 ft | 15 kts | 291° |
| 2026-05-05 20:25 | 34.71541 | 32.49323 | 33 ft | 95 kts | 286° |
| 2026-05-05 20:25 | 34.71864 | 32.48328 | 37 ft | 156 kts | 290° |
| 2026-05-05 20:25 | 34.72276 | 32.46970 | 413 ft | 173 kts | 291° |
| 2026-05-05 20:26 | 34.72665 | 32.45573 | 960 ft | 180 kts | 288° |
| 2026-05-05 20:26 | 34.73305 | 32.44267 | 1449 ft | 183 kts | 326° |
| 2026-05-05 20:26 | 34.74610 | 32.44045 | 1480 ft | 216 kts | 21° |
| 2026-05-05 20:26 | 34.75765 | 32.45459 | 1186 ft | 267 kts | 67° |
| 2026-05-05 20:27 | 34.75750 | 32.47809 | 1263 ft | 303 kts | 114° |
| 2026-05-05 20:27 | 34.74010 | 32.49339 | 797 ft | 349 kts | 170° |
| 2026-05-05 20:27 | 34.71450 | 32.49633 | 518 ft | 381 kts | 162° |
| 2026-05-05 20:27 | 34.69018 | 32.50567 | 1777 ft | 362 kts | 163° |
| 2026-05-05 20:28 | 34.66596 | 32.50596 | 2825 ft | 355 kts | 201° |
| 2026-05-05 20:28 | 34.64790 | 32.48679 | 3435 ft | 348 kts | 245° |
| 2026-05-05 20:28 | 34.63849 | 32.46085 | 4845 ft | 327 kts | 248° |
| 2026-05-05 20:28 | 34.63231 | 32.43532 | 6224 ft | 306 kts | 265° |
| 2026-05-05 20:29 | 34.63303 | 32.41049 | 7501 ft | 287 kts | 279° |
| 2026-05-05 20:29 | 34.63579 | 32.38682 | 8517 ft | 281 kts | 279° |
| 2026-05-05 20:29 | 34.63850 | 32.36342 | 9368 ft | 280 kts | 278° |
| 2026-05-05 20:29 | 34.64119 | 32.33994 | 10114 ft | 282 kts | 278° |
| 2026-05-05 20:30 | 34.64396 | 32.31558 | 10375 ft | 302 kts | 278° |
| 2026-05-05 20:30 | 34.64690 | 32.28935 | 10508 ft | 325 kts | 278° |
| 2026-05-05 20:30 | 34.65000 | 32.26128 | 10633 ft | 346 kts | 278° |
| 2026-05-05 20:30 | 34.65330 | 32.23151 | 10756 ft | 365 kts | 278° |
| 2026-05-05 20:31 | 34.65676 | 32.20020 | 10889 ft | 382 kts | 277° |
| 2026-05-05 20:31 | 34.66034 | 32.16784 | 11273 ft | 390 kts | 277° |
| 2026-05-05 20:31 | 34.66343 | 32.13505 | 11804 ft | 392 kts | 276° |
| 2026-05-05 20:31 | 34.66591 | 32.10199 | 12361 ft | 394 kts | 275° |
| 2026-05-05 20:32 | 34.66792 | 32.07043 | 12881 ft | 396 kts | 274° |
| 2026-05-05 20:32 | 34.66925 | 32.04850 | 13218 ft | 397 kts | 274° |
| 2026-05-05 20:32 | 34.67127 | 32.01499 | 13775 ft | 399 kts | 274° |
| 2026-05-05 20:32 | 34.67299 | 31.98753 | 14161 ft | 401 kts | 274° |
| 2026-05-05 20:33 | 34.67477 | 31.96006 | 14530 ft | 402 kts | 274° |
| 2026-05-05 20:33 | 34.67576 | 31.94525 | 14729 ft | 403 kts | 275° |
| 2026-05-05 20:33 | 34.67989 | 31.91451 | 15119 ft | 405 kts | 284° |
| 2026-05-05 20:33 | 34.68920 | 31.88219 | 15563 ft | 408 kts | 294° |
| 2026-05-05 20:34 | 34.70293 | 31.85182 | 15998 ft | 411 kts | 299° |
| 2026-05-05 20:34 | 34.71390 | 31.82952 | 16323 ft | 412 kts | 299° |
| 2026-05-05 20:34 | 34.72787 | 31.80102 | 16733 ft | 414 kts | 299° |
| 2026-05-05 20:34 | 34.74260 | 31.77083 | 17167 ft | 416 kts | 299° |
| 2026-05-05 20:35 | 34.75266 | 31.75016 | 17453 ft | 417 kts | 299° |
| 2026-05-05 20:35 | 34.75994 | 31.73519 | 17658 ft | 418 kts | 299° |
| 2026-05-05 20:35 | 34.77475 | 31.70470 | 18070 ft | 420 kts | 299° |
| 2026-05-05 20:35 | 34.78961 | 31.67408 | 18453 ft | 421 kts | 299° |
| 2026-05-05 20:36 | 34.80454 | 31.64332 | 18797 ft | 423 kts | 299° |
| 2026-05-05 20:36 | 34.81947 | 31.61250 | 19127 ft | 424 kts | 298° |
| 2026-05-05 20:36 | 34.83448 | 31.58148 | 19482 ft | 426 kts | 298° |
| 2026-05-05 20:36 | 34.84952 | 31.55035 | 19812 ft | 427 kts | 298° |
| 2026-05-05 20:37 | 34.86461 | 31.51914 | 20006 ft | 428 kts | 298° |
| 2026-05-05 20:37 | 34.87481 | 31.49807 | 20037 ft | 428 kts | 298° |
| 2026-05-05 20:37 | 34.89480 | 31.45674 | 20045 ft | 427 kts | 298° |
| 2026-05-05 20:37 | 34.90983 | 31.42556 | 20045 ft | 427 kts | 298° |
| 2026-05-05 20:38 | 34.92489 | 31.39434 | 20044 ft | 427 kts | 298° |
| 2026-05-05 20:38 | 34.93994 | 31.36316 | 20041 ft | 427 kts | 298° |
| 2026-05-05 20:38 | 34.95498 | 31.33195 | 20046 ft | 427 kts | 298° |
| 2026-05-05 20:38 | 34.97004 | 31.30071 | 20045 ft | 427 kts | 298° |
| 2026-05-05 20:39 | 34.98505 | 31.26947 | 20046 ft | 427 kts | 298° |
| 2026-05-05 20:39 | 35.00005 | 31.23821 | 20048 ft | 427 kts | 298° |
| 2026-05-05 20:39 | 35.01506 | 31.20688 | 20185 ft | 429 kts | 298° |
| 2026-05-05 20:39 | 35.03011 | 31.17541 | 20514 ft | 430 kts | 298° |
| 2026-05-05 20:40 | 35.04520 | 31.14383 | 20828 ft | 432 kts | 298° |
| 2026-05-05 20:40 | 35.06035 | 31.11215 | 21138 ft | 433 kts | 298° |
| 2026-05-05 20:40 | 35.07555 | 31.08034 | 21436 ft | 434 kts | 298° |
| 2026-05-05 20:40 | 35.09075 | 31.04845 | 21748 ft | 435 kts | 298° |
| 2026-05-05 20:41 | 35.10597 | 31.01641 | 22022 ft | 437 kts | 298° |
| 2026-05-05 20:41 | 35.12125 | 30.98433 | 22297 ft | 438 kts | 298° |
| 2026-05-05 20:41 | 35.13662 | 30.95206 | 22572 ft | 439 kts | 298° |
| 2026-05-05 20:41 | 35.15199 | 30.91977 | 22863 ft | 440 kts | 298° |
| 2026-05-05 20:42 | 35.16716 | 30.88785 | 23133 ft | 441 kts | 299° |
| 2026-05-05 20:42 | 35.18466 | 30.85692 | 23389 ft | 445 kts | 307° |
| 2026-05-05 20:42 | 35.20550 | 30.82883 | 23640 ft | 447 kts | 311° |
| 2026-05-05 20:42 | 35.22681 | 30.80115 | 23921 ft | 446 kts | 311° |
| 2026-05-05 20:43 | 35.24802 | 30.77355 | 24253 ft | 444 kts | 311° |
| 2026-05-05 20:43 | 35.26912 | 30.74604 | 24582 ft | 442 kts | 311° |
| 2026-05-05 20:43 | 35.29010 | 30.71860 | 24913 ft | 441 kts | 311° |
| 2026-05-05 20:43 | 35.31095 | 30.69125 | 25250 ft | 439 kts | 311° |
| 2026-05-05 20:44 | 35.33175 | 30.66398 | 25590 ft | 437 kts | 311° |
| 2026-05-05 20:44 | 35.35246 | 30.63681 | 25934 ft | 435 kts | 311° |
| 2026-05-05 20:44 | 35.37309 | 30.60976 | 26288 ft | 434 kts | 311° |
| 2026-05-05 20:44 | 35.39366 | 30.58277 | 26653 ft | 432 kts | 311° |
| 2026-05-05 20:45 | 35.43453 | 30.52918 | 27352 ft | 429 kts | 311° |
| 2026-05-05 20:45 | 35.45479 | 30.50248 | 27704 ft | 427 kts | 311° |
| 2026-05-05 20:45 | 35.47497 | 30.47583 | 28084 ft | 426 kts | 311° |
| 2026-05-05 20:46 | 35.49507 | 30.44925 | 28430 ft | 424 kts | 311° |
| 2026-05-05 20:46 | 35.51512 | 30.42271 | 28774 ft | 423 kts | 311° |
| 2026-05-05 20:46 | 35.53510 | 30.39631 | 29126 ft | 422 kts | 311° |
| 2026-05-05 20:46 | 35.55499 | 30.37000 | 29536 ft | 419 kts | 311° |
| 2026-05-05 20:47 | 35.57476 | 30.34383 | 29932 ft | 417 kts | 311° |
| 2026-05-05 20:47 | 35.59440 | 30.31783 | 30270 ft | 415 kts | 311° |
| 2026-05-05 20:47 | 35.61403 | 30.29188 | 30552 ft | 414 kts | 311° |
| 2026-05-05 20:47 | 35.63361 | 30.26598 | 30820 ft | 413 kts | 311° |
| 2026-05-05 20:48 | 35.65316 | 30.24008 | 31080 ft | 413 kts | 311° |
| 2026-05-05 20:48 | 35.67264 | 30.21419 | 31344 ft | 412 kts | 311° |
| 2026-05-05 20:48 | 35.69184 | 30.18863 | 31576 ft | 412 kts | 311° |
| 2026-05-05 20:48 | 35.71129 | 30.16274 | 31825 ft | 412 kts | 311° |
| 2026-05-05 20:49 | 35.73075 | 30.13689 | 32086 ft | 411 kts | 311° |
| 2026-05-05 20:49 | 35.75018 | 30.11107 | 32329 ft | 411 kts | 312° |
| 2026-05-05 20:49 | 35.76954 | 30.08528 | 32629 ft | 409 kts | 311° |
| 2026-05-05 20:49 | 35.78881 | 30.05954 | 32904 ft | 408 kts | 311° |
| 2026-05-05 20:50 | 35.80804 | 30.03384 | 33175 ft | 407 kts | 311° |
| 2026-05-05 20:50 | 35.82103 | 30.01649 | 33358 ft | 408 kts | 311° |
| 2026-05-05 20:50 | 35.84388 | 29.97988 | 33632 ft | 408 kts | 302° |
| 2026-05-05 20:50 | 35.85907 | 29.95037 | 33860 ft | 408 kts | 302° |
| 2026-05-05 20:51 | 35.87427 | 29.92087 | 34003 ft | 409 kts | 302° |
| 2026-05-05 20:51 | 35.88960 | 29.89115 | 34030 ft | 412 kts | 302° |
| 2026-05-05 20:51 | 35.92045 | 29.83124 | 34030 ft | 414 kts | 302° |
| 2026-05-05 20:52 | 35.94612 | 29.78144 | 34029 ft | 413 kts | 303° |
| 2026-05-05 20:52 | 35.97694 | 29.72160 | 34029 ft | 413 kts | 303° |
| 2026-05-05 20:53 | 36.00763 | 29.66167 | 34029 ft | 413 kts | 302° |
| 2026-05-05 20:53 | 36.03827 | 29.60165 | 34030 ft | 413 kts | 302° |
| 2026-05-05 20:54 | 36.06851 | 29.54243 | 34026 ft | 413 kts | 302° |
| 2026-05-05 20:54 | 36.09913 | 29.48236 | 34032 ft | 413 kts | 303° |
| 2026-05-05 20:55 | 36.12968 | 29.42236 | 34032 ft | 412 kts | 303° |
| 2026-05-05 20:55 | 36.16019 | 29.36229 | 34031 ft | 412 kts | 303° |
| 2026-05-05 20:56 | 36.19439 | 29.30571 | 34029 ft | 412 kts | 315° |
| 2026-05-05 20:56 | 36.23795 | 29.25961 | 34055 ft | 412 kts | 319° |
| 2026-05-05 20:57 | 36.28174 | 29.21376 | 34039 ft | 412 kts | 319° |
| 2026-05-05 20:57 | 36.32543 | 29.16780 | 34038 ft | 412 kts | 319° |
| 2026-05-05 20:58 | 36.36908 | 29.12182 | 34034 ft | 411 kts | 319° |
| 2026-05-05 20:58 | 36.41271 | 29.07588 | 34032 ft | 411 kts | 319° |
| 2026-05-05 20:59 | 36.45630 | 29.02984 | 34031 ft | 411 kts | 319° |
| 2026-05-05 20:59 | 36.49983 | 28.98372 | 34030 ft | 411 kts | 319° |
| 2026-05-05 21:00 | 36.54308 | 28.93790 | 34035 ft | 411 kts | 319° |
| 2026-05-05 21:00 | 36.58663 | 28.89175 | 34034 ft | 412 kts | 319° |
| 2026-05-05 21:01 | 36.63025 | 28.84552 | 34032 ft | 412 kts | 319° |
| 2026-05-05 21:01 | 36.67386 | 28.79915 | 34031 ft | 412 kts | 319° |
| 2026-05-05 21:02 | 36.71747 | 28.75271 | 34032 ft | 412 kts | 319° |
| 2026-05-05 21:02 | 36.76119 | 28.70642 | 34033 ft | 413 kts | 319° |
| 2026-05-05 21:03 | 36.80490 | 28.66005 | 34029 ft | 412 kts | 319° |
| 2026-05-05 21:03 | 36.84854 | 28.61365 | 34059 ft | 412 kts | 319° |
| 2026-05-05 21:04 | 36.89213 | 28.56723 | 34058 ft | 412 kts | 319° |
| 2026-05-05 21:04 | 36.93573 | 28.52077 | 34060 ft | 412 kts | 319° |
| 2026-05-05 21:05 | 36.97933 | 28.47425 | 34072 ft | 412 kts | 319° |
| 2026-05-05 21:05 | 37.02289 | 28.42768 | 34073 ft | 412 kts | 319° |
| 2026-05-05 21:06 | 37.06642 | 28.38099 | 34069 ft | 412 kts | 319° |
| 2026-05-05 21:06 | 37.10987 | 28.33425 | 34073 ft | 411 kts | 319° |
| 2026-05-05 21:07 | 37.13119 | 28.31093 | 34518 ft | 395 kts | 318° |
| 2026-05-05 21:07 | 37.15107 | 28.28783 | 34874 ft | 377 kts | 317° |
| 2026-05-05 21:07 | 37.17164 | 28.26693 | 34763 ft | 385 kts | 321° |
| 2026-05-05 21:07 | 37.19200 | 28.24628 | 35171 ft | 375 kts | 320° |
| 2026-05-05 21:08 | 37.21222 | 28.22481 | 34520 ft | 383 kts | 319° |
| 2026-05-05 21:08 | 37.23243 | 28.20272 | 34179 ft | 397 kts | 319° |
| 2026-05-05 21:08 | 37.25340 | 28.17961 | 34040 ft | 404 kts | 319° |
| 2026-05-05 21:08 | 37.27466 | 28.15625 | 34070 ft | 408 kts | 319° |
| 2026-05-05 21:09 | 37.31758 | 28.10948 | 34067 ft | 409 kts | 319° |
| 2026-05-05 21:09 | 37.36088 | 28.06231 | 34058 ft | 416 kts | 319° |
| 2026-05-05 21:10 | 37.40497 | 28.01422 | 34065 ft | 421 kts | 319° |
| 2026-05-05 21:10 | 37.44921 | 27.96579 | 34073 ft | 422 kts | 319° |
| 2026-05-05 21:11 | 37.49347 | 27.91733 | 34071 ft | 422 kts | 319° |
| 2026-05-05 21:11 | 37.53773 | 27.86882 | 34067 ft | 422 kts | 319° |
| 2026-05-05 21:12 | 37.58198 | 27.82018 | 34063 ft | 422 kts | 319° |
| 2026-05-05 21:12 | 37.62614 | 27.77151 | 34062 ft | 422 kts | 319° |
| 2026-05-05 21:13 | 37.67027 | 27.72267 | 34062 ft | 422 kts | 319° |
| 2026-05-05 21:13 | 37.71443 | 27.67387 | 34063 ft | 422 kts | 319° |
| 2026-05-05 21:14 | 37.75870 | 27.62494 | 34064 ft | 424 kts | 319° |
| 2026-05-05 21:14 | 37.80307 | 27.57585 | 34073 ft | 424 kts | 319° |
| 2026-05-05 21:15 | 37.84737 | 27.52665 | 34073 ft | 424 kts | 319° |
| 2026-05-05 21:15 | 37.89168 | 27.47732 | 34073 ft | 424 kts | 319° |
| 2026-05-05 21:16 | 37.93612 | 27.42835 | 34083 ft | 423 kts | 319° |
| 2026-05-05 21:16 | 37.98061 | 27.37975 | 34087 ft | 422 kts | 320° |
| 2026-05-05 21:17 | 38.02467 | 27.33145 | 34101 ft | 421 kts | 320° |
| 2026-05-05 21:17 | 38.06900 | 27.28267 | 34087 ft | 422 kts | 320° |
| 2026-05-05 21:18 | 38.11329 | 27.23382 | 34083 ft | 422 kts | 319° |
| 2026-05-05 21:18 | 38.15753 | 27.18487 | 34082 ft | 422 kts | 319° |
| 2026-05-05 21:19 | 38.20171 | 27.13593 | 34070 ft | 421 kts | 319° |
| 2026-05-05 21:19 | 38.24585 | 27.08687 | 34078 ft | 421 kts | 319° |
| 2026-05-05 21:20 | 38.28998 | 27.03780 | 34081 ft | 421 kts | 319° |
| 2026-05-05 21:20 | 38.33409 | 26.98878 | 34087 ft | 421 kts | 320° |
| 2026-05-05 21:21 | 38.37847 | 26.93985 | 34089 ft | 422 kts | 320° |
| 2026-05-05 21:21 | 38.42290 | 26.89095 | 34087 ft | 422 kts | 320° |
| 2026-05-05 21:22 | 38.46724 | 26.84191 | 34069 ft | 422 kts | 320° |
| 2026-05-05 21:22 | 38.51154 | 26.79275 | 34078 ft | 422 kts | 320° |
| 2026-05-05 21:23 | 38.55585 | 26.74355 | 34083 ft | 422 kts | 320° |
| 2026-05-05 21:23 | 38.60012 | 26.69432 | 34093 ft | 422 kts | 320° |
| 2026-05-05 21:24 | 38.64441 | 26.64497 | 34082 ft | 422 kts | 320° |
| 2026-05-05 21:24 | 38.68871 | 26.59552 | 34074 ft | 423 kts | 320° |
| 2026-05-05 21:25 | 38.73301 | 26.54590 | 34048 ft | 423 kts | 320° |
| 2026-05-05 21:25 | 38.77735 | 26.49630 | 34058 ft | 423 kts | 320° |
| 2026-05-05 21:26 | 38.82170 | 26.44657 | 34062 ft | 424 kts | 320° |
| 2026-05-05 21:26 | 38.86240 | 26.39180 | 34067 ft | 425 kts | 313° |
| 2026-05-05 21:27 | 38.90169 | 26.33502 | 34079 ft | 425 kts | 314° |
| 2026-05-05 21:27 | 38.94106 | 26.27822 | 34078 ft | 426 kts | 314° |
| 2026-05-05 21:28 | 38.98015 | 26.22163 | 34077 ft | 427 kts | 313° |
| 2026-05-05 21:28 | 39.01952 | 26.16451 | 34075 ft | 427 kts | 313° |
| 2026-05-05 21:29 | 39.05890 | 26.10735 | 34079 ft | 427 kts | 313° |
| 2026-05-05 21:29 | 39.09823 | 26.05012 | 34073 ft | 427 kts | 313° |
| 2026-05-05 21:30 | 39.13756 | 25.99280 | 34077 ft | 427 kts | 313° |
| 2026-05-05 21:30 | 39.17687 | 25.93545 | 34071 ft | 427 kts | 313° |
| 2026-05-05 21:31 | 39.21624 | 25.87782 | 34062 ft | 429 kts | 313° |
| 2026-05-05 21:31 | 39.25569 | 25.82009 | 34077 ft | 429 kts | 313° |
| 2026-05-05 21:32 | 39.29519 | 25.76223 | 34064 ft | 429 kts | 313° |
| 2026-05-05 21:32 | 39.33454 | 25.70424 | 34077 ft | 429 kts | 313° |
| 2026-05-05 21:33 | 39.37387 | 25.64612 | 34063 ft | 429 kts | 313° |
| 2026-05-05 21:33 | 39.41311 | 25.58820 | 34068 ft | 427 kts | 313° |
| 2026-05-05 21:34 | 39.45221 | 25.53045 | 34072 ft | 427 kts | 313° |
| 2026-05-05 21:34 | 39.49128 | 25.47267 | 34072 ft | 427 kts | 313° |
| 2026-05-05 21:35 | 39.53031 | 25.41482 | 34080 ft | 427 kts | 313° |
| 2026-05-05 21:35 | 39.56925 | 25.35678 | 34068 ft | 427 kts | 313° |
| 2026-05-05 21:36 | 39.60815 | 25.29873 | 34061 ft | 425 kts | 312° |
| 2026-05-05 21:36 | 39.64690 | 25.24087 | 34063 ft | 424 kts | 312° |
| 2026-05-05 21:37 | 39.68559 | 25.18302 | 34061 ft | 424 kts | 312° |
| 2026-05-05 21:37 | 39.72425 | 25.12511 | 34065 ft | 424 kts | 312° |
| 2026-05-05 21:38 | 39.76285 | 25.06711 | 34060 ft | 424 kts | 312° |
| 2026-05-05 21:38 | 39.79493 | 25.01889 | 34063 ft | 424 kts | 312° |
| 2026-05-05 21:39 | 39.83342 | 24.96092 | 34063 ft | 423 kts | 312° |
| 2026-05-05 21:39 | 39.87196 | 24.90288 | 34060 ft | 424 kts | 312° |
| 2026-05-05 21:40 | 39.91046 | 24.84477 | 34063 ft | 424 kts | 312° |
| 2026-05-05 21:40 | 39.94889 | 24.78650 | 34065 ft | 424 kts | 312° |
| 2026-05-05 21:41 | 39.98729 | 24.72812 | 34059 ft | 424 kts | 312° |
| 2026-05-05 21:41 | 40.02567 | 24.66968 | 34060 ft | 424 kts | 312° |
| 2026-05-05 21:42 | 40.06403 | 24.61121 | 34059 ft | 424 kts | 312° |
| 2026-05-05 21:42 | 40.10240 | 24.55267 | 34055 ft | 424 kts | 312° |
| 2026-05-05 21:43 | 40.14043 | 24.49453 | 34056 ft | 424 kts | 312° |
| 2026-05-05 21:43 | 40.17869 | 24.43593 | 34058 ft | 424 kts | 312° |
| 2026-05-05 21:44 | 40.21693 | 24.37727 | 34030 ft | 424 kts | 311° |
| 2026-05-05 21:44 | 40.25512 | 24.31853 | 34039 ft | 424 kts | 311° |
| 2026-05-05 21:45 | 40.29329 | 24.25972 | 34063 ft | 424 kts | 311° |
| 2026-05-05 21:45 | 40.33142 | 24.20077 | 34059 ft | 424 kts | 311° |
| 2026-05-05 21:46 | 40.36958 | 24.14182 | 34063 ft | 424 kts | 311° |
| 2026-05-05 21:46 | 40.40764 | 24.08275 | 34062 ft | 424 kts | 311° |
| 2026-05-05 21:47 | 40.44562 | 24.02378 | 34069 ft | 422 kts | 311° |
| 2026-05-05 21:47 | 40.48361 | 23.96472 | 34060 ft | 424 kts | 311° |
| 2026-05-05 21:48 | 40.52168 | 23.90554 | 34064 ft | 424 kts | 311° |
| 2026-05-05 21:48 | 40.55969 | 23.84619 | 34066 ft | 424 kts | 311° |
| 2026-05-05 21:49 | 40.59766 | 23.78679 | 34054 ft | 424 kts | 311° |
| 2026-05-05 21:49 | 40.63554 | 23.72733 | 34061 ft | 423 kts | 311° |
| 2026-05-05 21:50 | 40.67327 | 23.66795 | 34060 ft | 422 kts | 311° |
| 2026-05-05 21:50 | 40.71101 | 23.60868 | 34063 ft | 422 kts | 311° |
| 2026-05-05 21:51 | 40.74866 | 23.54930 | 34060 ft | 422 kts | 311° |
| 2026-05-05 21:51 | 40.78639 | 23.48966 | 34058 ft | 425 kts | 311° |
| 2026-05-05 21:52 | 40.84288 | 23.40014 | 34048 ft | 424 kts | 310° |
| 2026-05-05 21:53 | 40.88054 | 23.34026 | 34065 ft | 423 kts | 310° |
| 2026-05-05 21:53 | 40.91804 | 23.28061 | 34053 ft | 421 kts | 310° |
| 2026-05-05 21:54 | 40.95544 | 23.22105 | 34050 ft | 421 kts | 310° |
| 2026-05-05 21:54 | 40.99278 | 23.16147 | 34056 ft | 420 kts | 310° |
| 2026-05-05 21:55 | 41.03005 | 23.10176 | 34037 ft | 420 kts | 310° |
| 2026-05-05 21:55 | 41.06721 | 23.04217 | 34069 ft | 419 kts | 310° |
| 2026-05-05 21:56 | 41.10438 | 22.98258 | 34045 ft | 420 kts | 310° |
| 2026-05-05 21:56 | 41.14195 | 22.92324 | 34045 ft | 420 kts | 311° |
| 2026-05-05 21:57 | 41.17981 | 22.86416 | 34051 ft | 420 kts | 311° |
| 2026-05-05 21:57 | 41.21768 | 22.80495 | 34063 ft | 421 kts | 311° |
| 2026-05-05 21:58 | 41.25553 | 22.74560 | 34045 ft | 421 kts | 311° |
| 2026-05-05 21:58 | 41.29460 | 22.68772 | 34050 ft | 421 kts | 313° |
| 2026-05-05 21:59 | 41.33441 | 22.63066 | 34051 ft | 420 kts | 313° |
| 2026-05-05 21:59 | 41.37399 | 22.57327 | 34049 ft | 422 kts | 313° |
| 2026-05-05 22:00 | 41.41344 | 22.51539 | 34049 ft | 422 kts | 313° |
| 2026-05-05 22:00 | 41.45277 | 22.45731 | 34051 ft | 422 kts | 312° |
| 2026-05-05 22:01 | 41.49216 | 22.39907 | 34049 ft | 423 kts | 312° |
| 2026-05-05 22:01 | 41.53162 | 22.34080 | 34045 ft | 423 kts | 312° |
| 2026-05-05 22:02 | 41.57106 | 22.28237 | 34042 ft | 423 kts | 312° |
| 2026-05-05 22:02 | 41.61023 | 22.22432 | 34043 ft | 424 kts | 312° |
| 2026-05-05 22:03 | 41.64962 | 22.16574 | 34036 ft | 424 kts | 312° |
| 2026-05-05 22:03 | 41.68904 | 22.10696 | 34020 ft | 425 kts | 312° |
| 2026-05-05 22:04 | 41.72849 | 22.04812 | 34019 ft | 425 kts | 312° |
| 2026-05-05 22:04 | 41.76798 | 21.98914 | 34024 ft | 425 kts | 312° |
| 2026-05-05 22:05 | 41.80742 | 21.93002 | 34032 ft | 425 kts | 312° |
| 2026-05-05 22:05 | 41.84685 | 21.87088 | 34039 ft | 425 kts | 312° |
| 2026-05-05 22:06 | 41.88631 | 21.81167 | 34046 ft | 425 kts | 312° |
| 2026-05-05 22:06 | 41.92566 | 21.75227 | 34047 ft | 426 kts | 311° |
| 2026-05-05 22:07 | 41.96509 | 21.69264 | 34049 ft | 427 kts | 311° |
| 2026-05-05 22:07 | 42.00455 | 21.63297 | 34048 ft | 427 kts | 311° |
| 2026-05-05 22:08 | 42.04403 | 21.57318 | 34048 ft | 427 kts | 311° |
| 2026-05-05 22:08 | 42.08339 | 21.51329 | 34046 ft | 427 kts | 311° |
| 2026-05-05 22:09 | 42.12272 | 21.45329 | 34044 ft | 427 kts | 311° |
| 2026-05-05 22:09 | 42.16212 | 21.39325 | 34057 ft | 428 kts | 311° |
| 2026-05-05 22:10 | 42.20096 | 21.33248 | 34073 ft | 427 kts | 310° |
| 2026-05-05 22:10 | 42.23924 | 21.27124 | 34072 ft | 427 kts | 310° |
| 2026-05-05 22:11 | 42.27723 | 21.21047 | 34075 ft | 426 kts | 310° |
| 2026-05-05 22:11 | 42.31564 | 21.14940 | 34077 ft | 426 kts | 310° |
| 2026-05-05 22:12 | 42.35410 | 21.08812 | 34081 ft | 428 kts | 310° |
| 2026-05-05 22:12 | 42.39255 | 21.02658 | 34082 ft | 429 kts | 310° |
| 2026-05-05 22:13 | 42.43103 | 20.96488 | 34084 ft | 429 kts | 310° |
| 2026-05-05 22:13 | 42.46950 | 20.90320 | 34084 ft | 427 kts | 310° |
| 2026-05-05 22:13 | 42.48842 | 20.87282 | 34082 ft | 415 kts | 310° |
| 2026-05-05 22:14 | 42.50678 | 20.84324 | 34080 ft | 404 kts | 310° |
| 2026-05-05 22:14 | 42.54313 | 20.78456 | 34083 ft | 412 kts | 309° |
| 2026-05-05 22:15 | 42.58056 | 20.72415 | 34083 ft | 424 kts | 309° |
| 2026-05-05 22:15 | 42.61887 | 20.66205 | 34084 ft | 434 kts | 309° |
| 2026-05-05 22:16 | 42.65809 | 20.59839 | 34162 ft | 442 kts | 309° |
| 2026-05-05 22:16 | 42.67765 | 20.56662 | 34642 ft | 435 kts | 309° |
| 2026-05-05 22:16 | 42.69692 | 20.53533 | 35128 ft | 428 kts | 309° |
| 2026-05-05 22:16 | 42.71587 | 20.50455 | 35614 ft | 421 kts | 309° |
| 2026-05-05 22:17 | 42.73452 | 20.47427 | 36091 ft | 414 kts | 309° |
| 2026-05-05 22:17 | 42.75286 | 20.44451 | 36577 ft | 406 kts | 309° |
| 2026-05-05 22:17 | 42.77084 | 20.41532 | 37083 ft | 399 kts | 309° |
| 2026-05-05 22:17 | 42.78848 | 20.38672 | 37587 ft | 390 kts | 309° |
| 2026-05-05 22:18 | 42.80575 | 20.35873 | 38106 ft | 382 kts | 309° |
| 2026-05-05 22:18 | 42.82263 | 20.33137 | 38632 ft | 373 kts | 309° |
| 2026-05-05 22:18 | 42.83912 | 20.30469 | 39068 ft | 364 kts | 309° |
| 2026-05-05 22:18 | 42.85522 | 20.27866 | 39479 ft | 354 kts | 309° |
| 2026-05-05 22:19 | 42.87089 | 20.25336 | 39879 ft | 345 kts | 309° |
| 2026-05-05 22:19 | 42.88614 | 20.22873 | 40247 ft | 335 kts | 309° |
| 2026-05-05 22:19 | 42.90100 | 20.20478 | 40513 ft | 328 kts | 309° |
| 2026-05-05 22:20 | 42.93100 | 20.15639 | 40150 ft | 343 kts | 309° |
| 2026-05-05 22:20 | 42.96177 | 20.10676 | 40405 ft | 336 kts | 309° |
| 2026-05-05 22:20 | 42.97675 | 20.08266 | 40634 ft | 331 kts | 309° |
| 2026-05-05 22:21 | 42.99173 | 20.05860 | 40554 ft | 336 kts | 309° |
| 2026-05-05 22:21 | 43.00684 | 20.03433 | 40329 ft | 344 kts | 309° |
| 2026-05-05 22:21 | 43.02239 | 20.00937 | 40324 ft | 345 kts | 309° |
| 2026-05-05 22:21 | 43.03783 | 19.98465 | 40579 ft | 338 kts | 309° |
| 2026-05-05 22:22 | 43.05297 | 19.96044 | 40773 ft | 334 kts | 309° |
| 2026-05-05 22:22 | 43.08361 | 19.91154 | 40498 ft | 345 kts | 309° |
| 2026-05-05 22:23 | 43.11481 | 19.86189 | 40690 ft | 339 kts | 309° |
| 2026-05-05 22:23 | 43.13013 | 19.83758 | 40853 ft | 336 kts | 309° |
| 2026-05-05 22:23 | 43.14550 | 19.81323 | 40786 ft | 340 kts | 309° |
| 2026-05-05 22:23 | 43.16111 | 19.78853 | 40641 ft | 345 kts | 309° |
| 2026-05-05 22:24 | 43.17688 | 19.76361 | 40645 ft | 346 kts | 309° |
| 2026-05-05 22:24 | 43.19258 | 19.73888 | 40805 ft | 342 kts | 309° |
| 2026-05-05 22:24 | 43.20813 | 19.71444 | 40929 ft | 340 kts | 309° |
| 2026-05-05 22:25 | 43.23948 | 19.66530 | 40790 ft | 346 kts | 309° |
| 2026-05-05 22:25 | 43.27116 | 19.61571 | 40940 ft | 343 kts | 309° |
| 2026-05-05 22:25 | 43.28687 | 19.59114 | 41051 ft | 342 kts | 309° |
| 2026-05-05 22:26 | 43.30257 | 19.56661 | 40989 ft | 344 kts | 309° |
| 2026-05-05 22:26 | 43.31848 | 19.54172 | 40836 ft | 349 kts | 309° |
| 2026-05-05 22:26 | 43.33450 | 19.51666 | 40838 ft | 349 kts | 309° |
| 2026-05-05 22:26 | 43.35043 | 19.49175 | 40990 ft | 345 kts | 309° |
| 2026-05-05 22:27 | 43.36090 | 19.47540 | 41084 ft | 343 kts | 309° |
| 2026-05-05 22:27 | 43.39250 | 19.42605 | 41026 ft | 347 kts | 309° |
| 2026-05-05 22:28 | 43.42448 | 19.37607 | 41059 ft | 347 kts | 309° |
| 2026-05-05 22:28 | 43.44037 | 19.35126 | 41163 ft | 344 kts | 309° |
| 2026-05-05 22:28 | 43.45621 | 19.32651 | 41166 ft | 345 kts | 309° |
| 2026-05-05 22:29 | 43.48815 | 19.27657 | 41074 ft | 349 kts | 309° |
| 2026-05-05 22:29 | 43.52008 | 19.22663 | 41244 ft | 345 kts | 309° |
| 2026-05-05 22:30 | 43.55189 | 19.17683 | 41223 ft | 347 kts | 309° |
| 2026-05-05 22:30 | 43.58304 | 19.12569 | 41180 ft | 349 kts | 305° |
| 2026-05-05 22:31 | 43.61142 | 19.07153 | 41341 ft | 343 kts | 312° |
| 2026-05-05 22:31 | 43.62823 | 19.04996 | 42162 ft | 317 kts | 320° |
| 2026-05-05 22:31 | 43.64557 | 19.03242 | 42535 ft | 305 kts | 309° |
| 2026-05-05 22:31 | 43.65878 | 19.00924 | 40229 ft | 327 kts | 278° |
| 2026-05-05 22:32 | 43.66066 | 18.97290 | 37172 ft | 420 kts | 288° |
| 2026-05-05 22:32 | 43.67350 | 18.93837 | 36887 ft | 419 kts | 311° |
| 2026-05-05 22:32 | 43.69097 | 18.90469 | 36058 ft | 442 kts | 305° |
| 2026-05-05 22:32 | 43.71024 | 18.87070 | 35574 ft | 458 kts | 316° |
| 2026-05-05 22:33 | 43.73670 | 18.84504 | 35037 ft | 475 kts | 332° |
| 2026-05-05 22:33 | 43.79614 | 18.80288 | 35268 ft | 480 kts | 333° |
| 2026-05-05 22:33 | 43.82585 | 18.78183 | 35455 ft | 480 kts | 333° |
| 2026-05-05 22:34 | 43.85556 | 18.76078 | 35650 ft | 480 kts | 333° |
| 2026-05-05 22:34 | 43.88526 | 18.73974 | 35841 ft | 480 kts | 333° |
| 2026-05-05 22:34 | 43.91497 | 18.71868 | 36021 ft | 480 kts | 333° |
| 2026-05-05 22:34 | 43.94470 | 18.69760 | 36172 ft | 480 kts | 333° |
| 2026-05-05 22:35 | 43.97449 | 18.67626 | 36101 ft | 486 kts | 331° |
| 2026-05-05 22:35 | 44.03215 | 18.62752 | 35900 ft | 481 kts | 324° |
| 2026-05-05 22:35 | 44.05994 | 18.60166 | 35627 ft | 482 kts | 324° |
| 2026-05-05 22:36 | 44.08782 | 18.57559 | 35330 ft | 482 kts | 321° |
| 2026-05-05 22:36 | 44.11488 | 18.54813 | 34920 ft | 485 kts | 321° |
| 2026-05-05 22:36 | 44.14205 | 18.51954 | 34275 ft | 490 kts | 319° |
| 2026-05-05 22:36 | 44.16847 | 18.48990 | 33855 ft | 485 kts | 321° |
| 2026-05-05 22:37 | 44.19542 | 18.46340 | 34007 ft | 476 kts | 320° |
| 2026-05-05 22:37 | 44.24319 | 18.40150 | 34004 ft | 465 kts | 315° |
| 2026-05-05 22:38 | 44.28846 | 18.33783 | 34011 ft | 461 kts | 314° |
| 2026-05-05 22:38 | 44.33445 | 18.27342 | 34012 ft | 476 kts | 315° |
| 2026-05-05 22:39 | 44.38236 | 18.20759 | 34010 ft | 490 kts | 315° |
| 2026-05-05 22:39 | 44.43167 | 18.14016 | 34010 ft | 501 kts | 316° |
| 2026-05-05 22:40 | 44.48200 | 18.07087 | 34012 ft | 513 kts | 316° |
| 2026-05-05 22:40 | 44.53336 | 17.99973 | 34009 ft | 524 kts | 315° |
| 2026-05-05 22:41 | 44.58580 | 17.92692 | 34008 ft | 537 kts | 316° |
| 2026-05-05 22:41 | 44.63949 | 17.85232 | 34008 ft | 549 kts | 316° |
| 2026-05-05 22:42 | 44.69423 | 17.77594 | 34011 ft | 560 kts | 316° |
| 2026-05-05 22:42 | 44.75152 | 17.70087 | 34009 ft | 565 kts | 320° |
| 2026-05-05 22:43 | 44.81080 | 17.62856 | 34010 ft | 562 kts | 321° |
| 2026-05-05 22:43 | 44.87019 | 17.55726 | 34009 ft | 560 kts | 320° |
| 2026-05-05 22:43 | 44.89885 | 17.52244 | 34915 ft | 520 kts | 314° |
| 2026-05-05 22:44 | 44.92518 | 17.49007 | 35913 ft | 474 kts | 308° |
| 2026-05-05 22:44 | 44.94812 | 17.46273 | 37779 ft | 405 kts | 310° |
| 2026-05-05 22:44 | 44.96887 | 17.43817 | 37820 ft | 383 kts | 305° |
| 2026-05-05 22:44 | 44.98917 | 17.41259 | 36200 ft | 407 kts | 315° |
| 2026-05-05 22:45 | 45.01174 | 17.38646 | 35655 ft | 415 kts | 315° |
| 2026-05-05 22:45 | 45.03433 | 17.36257 | 36066 ft | 410 kts | 316° |
| 2026-05-05 22:45 | 45.05674 | 17.33489 | 34584 ft | 452 kts | 314° |
| 2026-05-05 22:45 | 45.07930 | 17.30121 | 33655 ft | 490 kts | 308° |
| 2026-05-05 22:46 | 45.10011 | 17.26212 | 33538 ft | 497 kts | 301° |
| 2026-05-05 22:46 | 45.12141 | 17.22248 | 33301 ft | 517 kts | 314° |
| 2026-05-05 22:46 | 45.14834 | 17.18770 | 33022 ft | 531 kts | 326° |
| 2026-05-05 22:47 | 45.20972 | 17.12703 | 33006 ft | 547 kts | 330° |
| 2026-05-05 22:47 | 45.27167 | 17.06110 | 33010 ft | 567 kts | 322° |
| 2026-05-05 22:48 | 45.33113 | 16.98476 | 33011 ft | 585 kts | 317° |
| 2026-05-05 22:48 | 45.39076 | 16.90381 | 33009 ft | 600 kts | 318° |
| 2026-05-05 22:49 | 45.45298 | 16.82277 | 33009 ft | 611 kts | 320° |
| 2026-05-05 22:49 | 45.51684 | 16.74252 | 33009 ft | 613 kts | 320° |
| 2026-05-05 22:50 | 45.58086 | 16.66195 | 33008 ft | 614 kts | 320° |
| 2026-05-05 22:50 | 45.64436 | 16.58044 | 33009 ft | 614 kts | 319° |
| 2026-05-05 22:51 | 45.70757 | 16.49844 | 33010 ft | 614 kts | 319° |
| 2026-05-05 22:51 | 45.77083 | 16.41643 | 33009 ft | 614 kts | 319° |
| 2026-05-05 22:52 | 45.83371 | 16.33495 | 33009 ft | 613 kts | 319° |
| 2026-05-05 22:52 | 45.89742 | 16.25223 | 33010 ft | 613 kts | 319° |
| 2026-05-05 22:53 | 45.96016 | 16.17032 | 33007 ft | 614 kts | 319° |
| 2026-05-05 22:53 | 46.02337 | 16.08750 | 33010 ft | 614 kts | 319° |
| 2026-05-05 22:54 | 46.08648 | 16.00464 | 33007 ft | 614 kts | 319° |
| 2026-05-05 22:54 | 46.14957 | 15.92154 | 33010 ft | 614 kts | 319° |
| 2026-05-05 22:55 | 46.21261 | 15.83815 | 33010 ft | 615 kts | 318° |
| 2026-05-05 22:55 | 46.27564 | 15.75447 | 33009 ft | 616 kts | 318° |
| 2026-05-05 22:56 | 46.33864 | 15.67048 | 33010 ft | 615 kts | 319° |
| 2026-05-05 22:56 | 46.40153 | 15.58645 | 33008 ft | 615 kts | 319° |
| 2026-05-05 22:57 | 46.46448 | 15.50231 | 33010 ft | 617 kts | 319° |
| 2026-05-05 22:57 | 46.52770 | 15.41747 | 33017 ft | 620 kts | 318° |
| 2026-05-05 22:58 | 46.59082 | 15.33233 | 33003 ft | 618 kts | 317° |
| 2026-05-05 22:58 | 46.65380 | 15.24711 | 33008 ft | 619 kts | 318° |
| 2026-05-05 22:59 | 46.71667 | 15.16181 | 33006 ft | 617 kts | 318° |
| 2026-05-05 22:59 | 46.77962 | 15.07615 | 33006 ft | 621 kts | 318° |
| 2026-05-05 23:00 | 46.87464 | 14.94612 | 33009 ft | 630 kts | 318° |
| 2026-05-05 23:00 | 46.93908 | 14.85753 | 33010 ft | 640 kts | 317° |
| 2026-05-05 23:01 | 47.00393 | 14.76798 | 33657 ft | 634 kts | 317° |
| 2026-05-05 23:01 | 47.03573 | 14.72385 | 34273 ft | 625 kts | 317° |
| 2026-05-05 23:01 | 47.06690 | 14.68009 | 34875 ft | 616 kts | 317° |
| 2026-05-05 23:02 | 47.09729 | 14.63629 | 35469 ft | 608 kts | 315° |
| 2026-05-05 23:02 | 47.12667 | 14.59216 | 36060 ft | 600 kts | 313° |
| 2026-05-05 23:02 | 47.15439 | 14.54817 | 36632 ft | 591 kts | 311° |
| 2026-05-05 23:02 | 47.18100 | 14.50283 | 37213 ft | 581 kts | 308° |
| 2026-05-05 23:03 | 47.20585 | 14.45657 | 37786 ft | 571 kts | 304° |
| 2026-05-05 23:03 | 47.22858 | 14.40947 | 38351 ft | 559 kts | 300° |
| 2026-05-05 23:03 | 47.24890 | 14.36151 | 38884 ft | 545 kts | 294° |
| 2026-05-05 23:03 | 47.26646 | 14.31294 | 39392 ft | 530 kts | 288° |
| 2026-05-05 23:04 | 47.28092 | 14.26414 | 39842 ft | 510 kts | 281° |
| 2026-05-05 23:04 | 47.29202 | 14.21560 | 40143 ft | 494 kts | 274° |
| 2026-05-05 23:04 | 47.29981 | 14.16681 | 39923 ft | 488 kts | 266° |
| 2026-05-05 23:04 | 47.30389 | 14.11721 | 39396 ft | 487 kts | 257° |
| 2026-05-05 23:05 | 47.30353 | 14.06798 | 39175 ft | 473 kts | 247° |
| 2026-05-05 23:05 | 47.29882 | 14.02172 | 39496 ft | 436 kts | 237° |
| 2026-05-05 23:05 | 47.29057 | 13.98044 | 39763 ft | 408 kts | 226° |
| 2026-05-05 23:05 | 47.27881 | 13.94388 | 39431 ft | 383 kts | 215° |
| 2026-05-05 23:06 | 47.26330 | 13.91306 | 38715 ft | 368 kts | 202° |
| 2026-05-05 23:06 | 47.24417 | 13.89000 | 38438 ft | 340 kts | 188° |
| 2026-05-05 23:06 | 47.22425 | 13.87691 | 39053 ft | 287 kts | 173° |
| 2026-05-05 23:06 | 47.20622 | 13.87316 | 39691 ft | 243 kts | 159° |
| 2026-05-05 23:07 | 47.19048 | 13.87782 | 39583 ft | 227 kts | 145° |
| 2026-05-05 23:07 | 47.17763 | 13.89155 | 38969 ft | 237 kts | 129° |
| 2026-05-05 23:07 | 47.16992 | 13.91398 | 38627 ft | 260 kts | 111° |
| 2026-05-05 23:07 | 47.16989 | 13.94103 | 38958 ft | 281 kts | 94° |
| 2026-05-05 23:08 | 47.17833 | 13.96862 | 39503 ft | 309 kts | 75° |
| 2026-05-05 23:08 | 47.19438 | 13.99258 | 39585 ft | 355 kts | 58° |
| 2026-05-05 23:08 | 47.21784 | 14.01126 | 39087 ft | 416 kts | 38° |
| 2026-05-05 23:08 | 47.24822 | 14.02088 | 38374 ft | 480 kts | 18° |
| 2026-05-05 23:09 | 47.28258 | 14.01968 | 38270 ft | 496 kts | 9° |
| 2026-05-05 23:09 | 47.31681 | 14.01546 | 38373 ft | 496 kts | 10° |
| 2026-05-05 23:09 | 47.35171 | 14.01132 | 37180 ft | 513 kts | 9° |
| 2026-05-05 23:09 | 47.38810 | 14.00758 | 35732 ft | 535 kts | 9° |
| 2026-05-05 23:10 | 47.42537 | 14.00425 | 34774 ft | 552 kts | 9° |
| 2026-05-05 23:10 | 47.46456 | 14.00097 | 34329 ft | 560 kts | 8° |
| 2026-05-05 23:10 | 47.50381 | 13.99262 | 34069 ft | 580 kts | 357° |
| 2026-05-05 23:10 | 47.54238 | 13.97504 | 33966 ft | 597 kts | 345° |
| 2026-05-05 23:11 | 47.57998 | 13.94741 | 34014 ft | 609 kts | 333° |
| 2026-05-05 23:11 | 47.61436 | 13.91015 | 34006 ft | 616 kts | 319° |
| 2026-05-05 23:11 | 47.67635 | 13.82195 | 34006 ft | 619 kts | 316° |
| 2026-05-05 23:12 | 47.73849 | 13.73295 | 34011 ft | 621 kts | 317° |
| 2026-05-05 23:12 | 47.80039 | 13.64404 | 34005 ft | 618 kts | 317° |
| 2026-05-05 23:13 | 47.86200 | 13.55493 | 33993 ft | 617 kts | 316° |
| 2026-05-05 23:13 | 47.92349 | 13.46555 | 34017 ft | 617 kts | 316° |
| 2026-05-05 23:14 | 47.98485 | 13.37615 | 34015 ft | 616 kts | 316° |
| 2026-05-05 23:14 | 48.04612 | 13.28667 | 34020 ft | 616 kts | 316° |
| 2026-05-05 23:15 | 48.10736 | 13.19703 | 34013 ft | 616 kts | 316° |
| 2026-05-05 23:15 | 48.15820 | 13.12244 | 34015 ft | 616 kts | 316° |
| 2026-05-05 23:16 | 48.21926 | 13.03238 | 34027 ft | 615 kts | 317° |
| 2026-05-05 23:16 | 48.28490 | 12.95059 | 34018 ft | 613 kts | 324° |
| 2026-05-05 23:17 | 48.35173 | 12.87101 | 34016 ft | 613 kts | 324° |
| 2026-05-05 23:17 | 48.41843 | 12.79128 | 34010 ft | 612 kts | 324° |
| 2026-05-05 23:18 | 48.48494 | 12.71104 | 34006 ft | 612 kts | 323° |
| 2026-05-05 23:18 | 48.55125 | 12.63051 | 34000 ft | 612 kts | 324° |
| 2026-05-05 23:19 | 48.61720 | 12.55061 | 33997 ft | 612 kts | 324° |
| 2026-05-05 23:19 | 48.68362 | 12.47020 | 33999 ft | 612 kts | 324° |
| 2026-05-05 23:20 | 48.74997 | 12.38936 | 33999 ft | 612 kts | 323° |
| 2026-05-05 23:20 | 48.81622 | 12.30822 | 34000 ft | 612 kts | 323° |
| 2026-05-05 23:21 | 48.87929 | 12.22130 | 34001 ft | 614 kts | 310° |
| 2026-05-05 23:21 | 48.92847 | 12.11613 | 33999 ft | 609 kts | 297° |
| 2026-05-05 23:22 | 48.97238 | 12.00585 | 33998 ft | 609 kts | 297° |
| 2026-05-05 23:22 | 49.01628 | 11.89539 | 33994 ft | 610 kts | 297° |
| 2026-05-05 23:23 | 49.06000 | 11.78474 | 33996 ft | 610 kts | 297° |
| 2026-05-05 23:23 | 49.10371 | 11.67381 | 33995 ft | 610 kts | 297° |
| 2026-05-05 23:24 | 49.14739 | 11.56268 | 33998 ft | 610 kts | 297° |
| 2026-05-05 23:24 | 49.19087 | 11.45136 | 33995 ft | 610 kts | 297° |
| 2026-05-05 23:25 | 49.23420 | 11.33982 | 34000 ft | 610 kts | 296° |
| 2026-05-05 23:25 | 49.27742 | 11.22819 | 34000 ft | 610 kts | 296° |
| 2026-05-05 23:26 | 49.32058 | 11.11634 | 34002 ft | 609 kts | 296° |
| 2026-05-05 23:26 | 49.36355 | 11.00446 | 34003 ft | 609 kts | 296° |
| 2026-05-05 23:27 | 49.40536 | 10.89251 | 33998 ft | 607 kts | 294° |
| 2026-05-05 23:27 | 49.44334 | 10.77709 | 33996 ft | 604 kts | 290° |
| 2026-05-05 23:28 | 49.47911 | 10.66025 | 33995 ft | 604 kts | 289° |
| 2026-05-05 23:28 | 49.51554 | 10.54375 | 33992 ft | 605 kts | 291° |
| 2026-05-05 23:29 | 49.55306 | 10.42780 | 33993 ft | 605 kts | 291° |
| 2026-05-05 23:29 | 49.59069 | 10.31176 | 33992 ft | 605 kts | 291° |
| 2026-05-05 23:30 | 49.62771 | 10.19534 | 33991 ft | 605 kts | 290° |
| 2026-05-05 23:30 | 49.66431 | 10.07853 | 33992 ft | 604 kts | 290° |
| 2026-05-05 23:31 | 49.70092 | 9.96173 | 33995 ft | 604 kts | 290° |
| 2026-05-05 23:31 | 49.73757 | 9.84490 | 33998 ft | 604 kts | 290° |
| 2026-05-05 23:32 | 49.77411 | 9.72783 | 33997 ft | 604 kts | 290° |
| 2026-05-05 23:32 | 49.81040 | 9.61059 | 33997 ft | 604 kts | 290° |
| 2026-05-05 23:33 | 49.84653 | 9.49315 | 33996 ft | 604 kts | 290° |
| 2026-05-05 23:33 | 49.88257 | 9.37558 | 33993 ft | 604 kts | 289° |
| 2026-05-05 23:34 | 49.91855 | 9.25781 | 33990 ft | 604 kts | 289° |
| 2026-05-05 23:34 | 49.95446 | 9.13986 | 33996 ft | 604 kts | 289° |
| 2026-05-05 23:35 | 49.99020 | 9.02185 | 34009 ft | 604 kts | 289° |
| 2026-05-05 23:35 | 50.02578 | 8.90359 | 34009 ft | 603 kts | 289° |
| 2026-05-05 23:36 | 50.06113 | 8.78529 | 34006 ft | 603 kts | 289° |
| 2026-05-05 23:36 | 50.09522 | 8.66622 | 34011 ft | 601 kts | 287° |
| 2026-05-05 23:37 | 50.12810 | 8.54655 | 34009 ft | 601 kts | 287° |
| 2026-05-05 23:37 | 50.16092 | 8.42673 | 34005 ft | 601 kts | 287° |
| 2026-05-05 23:38 | 50.19404 | 8.30694 | 33994 ft | 602 kts | 287° |
| 2026-05-05 23:38 | 50.22722 | 8.18697 | 33993 ft | 602 kts | 287° |
| 2026-05-05 23:39 | 50.26015 | 8.06690 | 33999 ft | 601 kts | 287° |
| 2026-05-05 23:39 | 50.29263 | 7.94736 | 33996 ft | 601 kts | 287° |
| 2026-05-05 23:40 | 50.32517 | 7.82693 | 34007 ft | 601 kts | 286° |
| 2026-05-05 23:40 | 50.35766 | 7.70641 | 34010 ft | 601 kts | 286° |
| 2026-05-05 23:41 | 50.38999 | 7.58589 | 34006 ft | 600 kts | 286° |
| 2026-05-05 23:41 | 50.42211 | 7.46533 | 34001 ft | 599 kts | 286° |
| 2026-05-05 23:42 | 50.45410 | 7.34454 | 33999 ft | 600 kts | 286° |
| 2026-05-05 23:42 | 50.48595 | 7.22361 | 33991 ft | 599 kts | 286° |
| 2026-05-05 23:43 | 50.51775 | 7.10250 | 33988 ft | 600 kts | 286° |
| 2026-05-05 23:43 | 50.54946 | 6.98119 | 33989 ft | 600 kts | 285° |
| 2026-05-05 23:44 | 50.58099 | 6.85959 | 33991 ft | 600 kts | 285° |
| 2026-05-05 23:44 | 50.61242 | 6.73781 | 33998 ft | 601 kts | 285° |
| 2026-05-05 23:45 | 50.64378 | 6.61594 | 34007 ft | 600 kts | 285° |
| 2026-05-05 23:45 | 50.67501 | 6.49389 | 34007 ft | 600 kts | 285° |
| 2026-05-05 23:46 | 50.70603 | 6.37179 | 34005 ft | 600 kts | 285° |
| 2026-05-05 23:46 | 50.73687 | 6.24946 | 34004 ft | 600 kts | 285° |
| 2026-05-05 23:47 | 50.76758 | 6.12705 | 34002 ft | 599 kts | 285° |
| 2026-05-05 23:47 | 50.79821 | 6.00464 | 33999 ft | 599 kts | 284° |
| 2026-05-05 23:48 | 50.82769 | 5.88491 | 35376 ft | 551 kts | 287° |
| 2026-05-05 23:48 | 50.84045 | 5.83119 | 37068 ft | 496 kts | 287° |
| 2026-05-05 23:48 | 50.85218 | 5.78099 | 37966 ft | 476 kts | 288° |
| 2026-05-05 23:49 | 50.86348 | 5.73257 | 38594 ft | 461 kts | 287° |
| 2026-05-05 23:49 | 50.87371 | 5.68539 | 39074 ft | 443 kts | 284° |
| 2026-05-05 23:49 | 50.88164 | 5.63993 | 39549 ft | 413 kts | 279° |
| 2026-05-05 23:49 | 50.88705 | 5.59664 | 39393 ft | 399 kts | 282° |
| 2026-05-05 23:50 | 50.89667 | 5.55415 | 38130 ft | 422 kts | 292° |
| 2026-05-05 23:50 | 50.91062 | 5.51177 | 36627 ft | 445 kts | 296° |
| 2026-05-05 23:50 | 50.92587 | 5.46885 | 35430 ft | 458 kts | 296° |
| 2026-05-05 23:50 | 50.94082 | 5.42380 | 34511 ft | 464 kts | 293° |
| 2026-05-05 23:51 | 50.95430 | 5.37721 | 34082 ft | 466 kts | 289° |
| 2026-05-05 23:51 | 50.96656 | 5.32880 | 33891 ft | 468 kts | 287° |
| 2026-05-05 23:51 | 50.98850 | 5.23200 | 33878 ft | 470 kts | 286° |
| 2026-05-05 23:52 | 51.01065 | 5.13432 | 33868 ft | 470 kts | 287° |
| 2026-05-05 23:52 | 51.03374 | 5.03712 | 33878 ft | 471 kts | 288° |
| 2026-05-05 23:53 | 51.05717 | 4.94001 | 33880 ft | 470 kts | 288° |
| 2026-05-05 23:53 | 51.08041 | 4.84290 | 33877 ft | 470 kts | 287° |
| 2026-05-05 23:54 | 51.10333 | 4.74562 | 33874 ft | 470 kts | 287° |
| 2026-05-05 23:54 | 51.12605 | 4.64833 | 33886 ft | 468 kts | 287° |
| 2026-05-05 23:55 | 51.14877 | 4.55118 | 33883 ft | 468 kts | 287° |
| 2026-05-05 23:55 | 51.17136 | 4.45405 | 33883 ft | 468 kts | 287° |
| 2026-05-05 23:56 | 51.19385 | 4.35676 | 33881 ft | 468 kts | 287° |
| 2026-05-05 23:56 | 51.21626 | 4.25952 | 33880 ft | 467 kts | 287° |
| 2026-05-05 23:57 | 51.23864 | 4.16213 | 33877 ft | 467 kts | 287° |
| 2026-05-05 23:57 | 51.26090 | 4.06473 | 33876 ft | 467 kts | 287° |
| 2026-05-05 23:58 | 51.28313 | 3.96723 | 33882 ft | 467 kts | 287° |
| 2026-05-05 23:58 | 51.30520 | 3.86981 | 33883 ft | 466 kts | 287° |
| 2026-05-05 23:59 | 51.32712 | 3.77230 | 33896 ft | 466 kts | 287° |
| 2026-05-05 23:59 | 51.34898 | 3.67465 | 33887 ft | 466 kts | 287° |
| 2026-05-06 00:00 | 51.36880 | 3.57602 | 33889 ft | 465 kts | 283° |
| 2026-05-06 00:00 | 51.38557 | 3.47690 | 33890 ft | 464 kts | 281° |
| 2026-05-06 00:01 | 51.40205 | 3.37690 | 33894 ft | 465 kts | 282° |
| 2026-05-06 00:01 | 51.41919 | 3.27708 | 33909 ft | 465 kts | 282° |
| 2026-05-06 00:02 | 51.43668 | 3.17730 | 33911 ft | 465 kts | 282° |
| 2026-05-06 00:02 | 51.45397 | 3.07743 | 33908 ft | 465 kts | 282° |
| 2026-05-06 00:03 | 51.47069 | 2.97727 | 33913 ft | 465 kts | 282° |
| 2026-05-06 00:03 | 51.48425 | 2.89392 | 33912 ft | 465 kts | 281° |
| 2026-05-06 00:04 | 51.50058 | 2.79355 | 33932 ft | 465 kts | 281° |
| 2026-05-06 00:04 | 51.51693 | 2.69312 | 33929 ft | 465 kts | 281° |
| 2026-05-06 00:05 | 51.54125 | 2.54243 | 33937 ft | 464 kts | 281° |
| 2026-05-06 00:06 | 51.56089 | 2.44369 | 33961 ft | 464 kts | 287° |
| 2026-05-06 00:06 | 51.58312 | 2.34664 | 33970 ft | 461 kts | 287° |
| 2026-05-06 00:07 | 51.60507 | 2.25005 | 33968 ft | 459 kts | 287° |
| 2026-05-06 00:07 | 51.63206 | 2.15698 | 33006 ft | 462 kts | 301° |
| 2026-05-06 00:07 | 51.65205 | 2.11592 | 31315 ft | 471 kts | 312° |
| 2026-05-06 00:08 | 51.67663 | 2.08054 | 29617 ft | 478 kts | 321° |
| 2026-05-06 00:08 | 51.70460 | 2.05098 | 27674 ft | 483 kts | 330° |
| 2026-05-06 00:08 | 51.73440 | 2.02580 | 26257 ft | 482 kts | 331° |
| 2026-05-06 00:08 | 51.76400 | 2.00072 | 25857 ft | 480 kts | 330° |
| 2026-05-06 00:09 | 51.79341 | 1.97553 | 25616 ft | 477 kts | 330° |
| 2026-05-06 00:09 | 51.82264 | 1.95033 | 25367 ft | 475 kts | 330° |
| 2026-05-06 00:09 | 51.85173 | 1.92520 | 25130 ft | 473 kts | 330° |
| 2026-05-06 00:09 | 51.88027 | 1.89921 | 24877 ft | 469 kts | 326° |
| 2026-05-06 00:10 | 51.90626 | 1.86718 | 23933 ft | 471 kts | 316° |
| 2026-05-06 00:10 | 51.92816 | 1.82842 | 22633 ft | 464 kts | 309° |
| 2026-05-06 00:10 | 51.94847 | 1.78831 | 21332 ft | 457 kts | 309° |
| 2026-05-06 00:10 | 51.96855 | 1.74884 | 20107 ft | 450 kts | 309° |
| 2026-05-06 00:11 | 51.98841 | 1.71008 | 18945 ft | 444 kts | 310° |
| 2026-05-06 00:11 | 52.00805 | 1.67195 | 17782 ft | 437 kts | 310° |
| 2026-05-06 00:11 | 52.02716 | 1.63488 | 16849 ft | 431 kts | 310° |
| 2026-05-06 00:11 | 52.04635 | 1.59764 | 16588 ft | 429 kts | 309° |
| 2026-05-06 00:12 | 52.06543 | 1.56059 | 16332 ft | 426 kts | 309° |
| 2026-05-06 00:12 | 52.08434 | 1.52371 | 16075 ft | 424 kts | 308° |
| 2026-05-06 00:12 | 52.09998 | 1.48342 | 15816 ft | 421 kts | 294° |
| 2026-05-06 00:12 | 52.10841 | 1.43820 | 15572 ft | 418 kts | 282° |
| 2026-05-06 00:13 | 52.11425 | 1.39191 | 15331 ft | 417 kts | 281° |
| 2026-05-06 00:13 | 52.11993 | 1.34586 | 15073 ft | 415 kts | 281° |
| 2026-05-06 00:13 | 52.12554 | 1.29983 | 14828 ft | 414 kts | 281° |
| 2026-05-06 00:13 | 52.13112 | 1.25400 | 14584 ft | 411 kts | 281° |
| 2026-05-06 00:14 | 52.13665 | 1.20851 | 14341 ft | 410 kts | 281° |
| 2026-05-06 00:14 | 52.14217 | 1.16315 | 14101 ft | 407 kts | 281° |
| 2026-05-06 00:14 | 52.14764 | 1.11810 | 13862 ft | 405 kts | 281° |
| 2026-05-06 00:14 | 52.15311 | 1.07305 | 13604 ft | 405 kts | 281° |
| 2026-05-06 00:15 | 52.15855 | 1.02823 | 13326 ft | 403 kts | 281° |
| 2026-05-06 00:15 | 52.16398 | 0.98342 | 13074 ft | 404 kts | 281° |
| 2026-05-06 00:15 | 52.16936 | 0.93871 | 12813 ft | 400 kts | 281° |
| 2026-05-06 00:15 | 52.17469 | 0.89428 | 12547 ft | 399 kts | 281° |
| 2026-05-06 00:16 | 52.17997 | 0.85001 | 12286 ft | 397 kts | 281° |
| 2026-05-06 00:16 | 52.18524 | 0.80600 | 12033 ft | 396 kts | 281° |
| 2026-05-06 00:16 | 52.19048 | 0.76208 | 11776 ft | 395 kts | 281° |
| 2026-05-06 00:16 | 52.19571 | 0.71825 | 11523 ft | 393 kts | 281° |
| 2026-05-06 00:17 | 52.20088 | 0.67454 | 11272 ft | 392 kts | 281° |
| 2026-05-06 00:17 | 52.20599 | 0.63085 | 11023 ft | 391 kts | 281° |
| 2026-05-06 00:17 | 52.21104 | 0.58743 | 10768 ft | 390 kts | 281° |
| 2026-05-06 00:17 | 52.21608 | 0.54401 | 10523 ft | 389 kts | 282° |
| 2026-05-06 00:18 | 52.22107 | 0.50084 | 10280 ft | 387 kts | 281° |
| 2026-05-06 00:18 | 52.22602 | 0.45765 | 10032 ft | 383 kts | 281° |
| 2026-05-06 00:18 | 52.22722 | 0.41562 | 9764 ft | 358 kts | 265° |
| 2026-05-06 00:18 | 52.22167 | 0.37788 | 9562 ft | 330 kts | 250° |
| 2026-05-06 00:19 | 52.21115 | 0.34623 | 9310 ft | 308 kts | 238° |
| 2026-05-06 00:19 | 52.19960 | 0.31822 | 9038 ft | 289 kts | 239° |
| 2026-05-06 00:19 | 52.18853 | 0.29135 | 8774 ft | 283 kts | 238° |
| 2026-05-06 00:19 | 52.17762 | 0.26477 | 8516 ft | 281 kts | 238° |
| 2026-05-06 00:20 | 52.16675 | 0.23831 | 8263 ft | 281 kts | 238° |
| 2026-05-06 00:20 | 52.15593 | 0.21199 | 7998 ft | 279 kts | 238° |
| 2026-05-06 00:20 | 52.14527 | 0.18610 | 7750 ft | 279 kts | 239° |
| 2026-05-06 00:20 | 52.13434 | 0.15960 | 7493 ft | 277 kts | 238° |
| 2026-05-06 00:21 | 52.12377 | 0.13399 | 7244 ft | 276 kts | 238° |
| 2026-05-06 00:21 | 52.11305 | 0.10805 | 6994 ft | 275 kts | 238° |
| 2026-05-06 00:21 | 52.10237 | 0.08230 | 6742 ft | 274 kts | 239° |
| 2026-05-06 00:21 | 52.09170 | 0.05659 | 6494 ft | 273 kts | 238° |
| 2026-05-06 00:22 | 52.08108 | 0.03102 | 6240 ft | 273 kts | 238° |
| 2026-05-06 00:22 | 52.07049 | 0.00550 | 5980 ft | 272 kts | 238° |
| 2026-05-06 00:22 | 52.05992 | -0.01994 | 5694 ft | 272 kts | 237° |
| 2026-05-06 00:22 | 52.04929 | -0.04545 | 5433 ft | 273 kts | 237° |
| 2026-05-06 00:23 | 52.03863 | -0.07099 | 5171 ft | 274 kts | 237° |
| 2026-05-06 00:23 | 52.02791 | -0.09668 | 4925 ft | 275 kts | 237° |
| 2026-05-06 00:23 | 52.01717 | -0.12240 | 4683 ft | 275 kts | 237° |
| 2026-05-06 00:23 | 52.00645 | -0.14802 | 4409 ft | 274 kts | 237° |
| 2026-05-06 00:24 | 51.99581 | -0.17351 | 4141 ft | 272 kts | 237° |
| 2026-05-06 00:24 | 51.98517 | -0.19891 | 3883 ft | 273 kts | 237° |
| 2026-05-06 00:24 | 51.97452 | -0.22427 | 3625 ft | 272 kts | 238° |
| 2026-05-06 00:24 | 51.96387 | -0.24968 | 3372 ft | 272 kts | 238° |
| 2026-05-06 00:25 | 51.95324 | -0.27504 | 3117 ft | 271 kts | 237° |
| 2026-05-06 00:25 | 51.94265 | -0.30023 | 2852 ft | 269 kts | 237° |
| 2026-05-06 00:25 | 51.93209 | -0.32528 | 2596 ft | 269 kts | 237° |
| 2026-05-06 00:25 | 51.92149 | -0.35040 | 2354 ft | 270 kts | 237° |
| 2026-05-06 00:26 | 51.91101 | -0.37519 | 2084 ft | 262 kts | 237° |
| 2026-05-06 00:26 | 51.90112 | -0.39852 | 1949 ft | 241 kts | 237° |
| 2026-05-06 00:26 | 51.89214 | -0.41968 | 1948 ft | 220 kts | 237° |
| 2026-05-06 00:26 | 51.88372 | -0.43955 | 1951 ft | 211 kts | 237° |
| 2026-05-06 00:27 | 51.87575 | -0.45841 | 1969 ft | 192 kts | 237° |
| 2026-05-06 00:27 | 51.86858 | -0.47533 | 1945 ft | 176 kts | 238° |
| 2026-05-06 00:27 | 51.86181 | -0.49133 | 1947 ft | 170 kts | 238° |
| 2026-05-06 00:27 | 51.85519 | -0.50693 | 1958 ft | 168 kts | 236° |
| 2026-05-06 00:28 | 51.84587 | -0.51727 | 1966 ft | 164 kts | 182° |
| 2026-05-06 00:28 | 51.83599 | -0.51131 | 1951 ft | 151 kts | 121° |
| 2026-05-06 00:28 | 51.83474 | -0.49673 | 1968 ft | 132 kts | 61° |
| 2026-05-06 00:28 | 51.84153 | -0.48726 | 1881 ft | 131 kts | 32° |
| 2026-05-06 00:29 | 51.84827 | -0.47728 | 1766 ft | 132 kts | 43° |
| 2026-05-06 00:29 | 51.85391 | -0.46554 | 1610 ft | 133 kts | 56° |
| 2026-05-06 00:29 | 51.85809 | -0.45235 | 1442 ft | 132 kts | 63° |
| 2026-05-06 00:29 | 51.86165 | -0.43872 | 1287 ft | 131 kts | 63° |
| 2026-05-06 00:30 | 51.86523 | -0.42511 | 1099 ft | 134 kts | 75° |
| 2026-05-06 00:30 | 51.86747 | -0.41068 | 921 ft | 131 kts | 71° |
| 2026-05-06 00:30 | 51.86991 | -0.39619 | 741 ft | 133 kts | 72° |
| 2026-05-06 00:30 | 51.87234 | -0.38193 | 566 ft | 131 kts | 70° |
| 2026-05-06 00:31 | 51.87435 | -0.37002 | 536 ft | 84 kts | 74° |
| 2026-05-06 00:31 | 51.87569 | -0.36229 | 532 ft | 42 kts | 75° |
| 2026-05-06 00:31 | 51.87636 | -0.35924 | 530 ft | 7 kts | 30° |
| 2026-05-06 00:31 | 51.87678 | -0.35920 | 531 ft | 6 kts | 350° |
| 2026-05-06 00:32 | 51.87728 | -0.35942 | 531 ft | 9 kts | 344° |
| 2026-05-06 00:32 | 51.87782 | -0.36020 | 532 ft | 12 kts | 293° |
| 2026-05-06 00:32 | 51.87769 | -0.36176 | 532 ft | 16 kts | 257° |
| 2026-05-06 00:32 | 51.87736 | -0.36372 | 533 ft | 20 kts | 255° |
| 2026-05-06 00:33 | 51.87694 | -0.36610 | 534 ft | 24 kts | 253° |
| 2026-05-06 00:33 | 51.87646 | -0.36889 | 534 ft | 28 kts | 255° |
| 2026-05-06 00:33 | 51.87601 | -0.37147 | 535 ft | 21 kts | 254° |
| 2026-05-06 00:33 | 51.87593 | -0.37392 | 536 ft | 24 kts | 299° |
| 2026-05-06 00:34 | 51.87709 | -0.37591 | 536 ft | 26 kts | 291° |
| 2026-05-06 00:34 | 51.87789 | -0.37865 | 537 ft | 27 kts | 296° |
| 2026-05-06 00:34 | 51.87938 | -0.38016 | 537 ft | 27 kts | 14° |
| 2026-05-06 00:34 | 51.88037 | -0.37909 | 537 ft | 1 kts | 37° |
| 2026-05-06 00:35 | 51.88045 | -0.37883 | 536 ft | 4 kts | 94° |
| 2026-05-06 00:35 | 51.88023 | -0.37831 | 536 ft | 3 kts | 130° |
| 2026-05-06 00:35 | 51.88020 | -0.37824 | 536 ft | 0 kts | 127° |